Time;durP1;ratioP1;P1;durP2;ratioP2;P2;SDS_P1;SDS_P2;PMS_P1;PMS_P2;Temp;Humidity;BMP_temperature;BMP_pressure;BME280_temperature;BME280_humidity;BME280_pressure;Samples;Min_cycle;Max_cycle;Signal;HPM_P1;HPM_P2
2022/09/23 00:00:49;;;;;;;5.00;4.13;;;;;;;;;;4998219;28;20072;-67
2022/09/23 00:03:15;;;;;;;5.45;4.80;;;;;;;;;;5003616;28;20100;-66
2022/09/23 00:05:42;;;;;;;5.15;4.35;;;;;;;;;;4985766;28;20054;-66
2022/09/23 00:08:10;;;;;;;6.50;4.78;;;;;;;;;;5003337;28;20104;-67
2022/09/23 00:10:38;;;;;;;6.60;4.85;;;;;;;;;;5004328;28;20049;-66
2022/09/23 00:13:05;;;;;;;5.18;4.68;;;;;;;;;;5003646;28;20049;-68
2022/09/23 00:15:36;;;;;;;6.15;4.65;;;;;;;;;;5001816;28;20393;-66
2022/09/23 00:18:03;;;;;;;5.25;4.20;;;;;;;;;;5002785;28;20058;-67
2022/09/23 00:20:32;;;;;;;5.68;4.60;;;;;;;;;;5020113;28;20045;-66
2022/09/23 00:22:59;;;;;;;4.88;3.90;;;;;;;;;;5001793;28;20042;-67
2022/09/23 00:25:28;;;;;;;8.00;4.45;;;;;;;;;;5023260;28;20397;-66
2022/09/23 00:27:55;;;;;;;6.10;4.72;;;;;;;;;;5015152;28;20065;-67
2022/09/23 00:30:22;;;;;;;4.80;4.10;;;;;;;;;;5003314;28;20052;-66
2022/09/23 00:32:49;;;;;;;6.80;4.47;;;;;;;;;;5003525;28;20460;-67
2022/09/23 00:35:16;;;;;;;5.22;4.40;;;;;;;;;;5003195;28;20045;-67
2022/09/23 00:37:42;;;;;;;7.07;4.18;;;;;;;;;;4984944;28;20108;-66
2022/09/23 00:40:09;;;;;;;5.22;4.55;;;;;;;;;;5020441;28;20049;-66
2022/09/23 00:42:36;;;;;;;5.15;4.20;;;;;;;;;;5019763;28;20049;-66
2022/09/23 00:45:03;;;;;;;4.80;4.15;;;;;;;;;;5002902;28;20057;-66
2022/09/23 00:47:47;;;;;;;5.45;4.35;;;;;;;;;;5001646;28;20049;-66
2022/09/23 00:50:22;;;;;;;6.70;4.90;;;;;;;;;;4980165;28;20128;-66
2022/09/23 00:52:50;;;;;;;12.55;5.50;;;;;;;;;;5002758;28;20550;-66
2022/09/23 00:55:24;;;;;;;6.75;4.88;;;;;;;;;;4979983;28;20100;-67
2022/09/23 00:57:53;;;;;;;5.50;4.93;;;;;;;;;;4984473;28;20104;-66
2022/09/23 01:00:20;;;;;;;6.18;4.22;;;;;;;;;;5005223;28;20141;-67
2022/09/23 01:02:47;;;;;;;6.97;4.55;;;;;;;;;;5002224;28;20099;-65
2022/09/23 01:05:14;;;;;;;5.05;4.45;;;;;;;;;;5019921;28;20113;-68
2022/09/23 01:07:41;;;;;;;8.65;5.10;;;;;;;;;;4984555;28;20105;-67
2022/09/23 01:10:08;;;;;;;8.30;4.80;;;;;;;;;;5020180;28;20401;-66
2022/09/23 01:12:48;;;;;;;7.93;4.57;;;;;;;;;;5003763;28;20458;-67
2022/09/23 01:15:18;;;;;;;5.03;4.43;;;;;;;;;;4985402;28;20505;-67
2022/09/23 01:18:29;;;;;;;5.25;4.30;;;;;;;;;;5019994;28;20092;-68
2022/09/23 01:21:20;;;;;;;4.28;3.88;;;;;;;;;;4930185;29;20461;-68
2022/09/23 01:24:17;;;;;;;5.15;4.50;;;;;;;;;;4939737;29;20533;-67
2022/09/23 01:27:02;;;;;;;4.22;3.83;;;;;;;;;;4991452;28;20050;-67
2022/09/23 01:29:41;;;;;;;4.88;4.38;;;;;;;;;;5019608;28;20045;-66
2022/09/23 01:32:20;;;;;;;6.60;4.05;;;;;;;;;;5019492;28;20115;-66
2022/09/23 01:34:49;;;;;;;4.63;4.00;;;;;;;;;;4997886;28;20516;-68
2022/09/23 01:37:23;;;;;;;4.50;4.10;;;;;;;;;;5018991;28;20500;-67
2022/09/23 01:40:02;;;;;;;5.30;4.03;;;;;;;;;;5001647;28;20099;-67
2022/09/23 01:42:56;;;;;;;6.55;4.05;;;;;;;;;;5001402;28;20068;-67
2022/09/23 01:45:43;;;;;;;4.18;3.78;;;;;;;;;;4995159;28;20054;-68
2022/09/23 01:48:27;;;;;;;4.40;3.90;;;;;;;;;;5013768;28;20062;-67
2022/09/23 01:51:19;;;;;;;7.50;4.60;;;;;;;;;;5019108;28;20497;-66
2022/09/23 01:53:59;;;;;;;5.93;4.32;;;;;;;;;;4992733;28;20099;-66
2022/09/23 01:56:37;;;;;;;4.53;3.70;;;;;;;;;;4988842;28;20042;-66
2022/09/23 01:59:16;;;;;;;4.70;4.22;;;;;;;;;;5017747;28;20132;-67
2022/09/23 02:01:47;;;;;;;5.10;4.18;;;;;;;;;;4980409;28;20053;-66
2022/09/23 02:04:24;;;;;;;8.10;4.70;;;;;;;;;;4987050;28;20131;-67
2022/09/23 02:06:57;;;;;;;4.53;4.13;;;;;;;;;;4999637;28;20085;-66
2022/09/23 02:09:27;;;;;;;7.55;4.72;;;;;;;;;;4983959;28;20081;-67
2022/09/23 02:11:57;;;;;;;4.90;4.22;;;;;;;;;;5001921;28;20492;-68
2022/09/23 02:14:28;;;;;;;5.78;4.65;;;;;;;;;;4985184;28;20408;-66
2022/09/23 02:16:56;;;;;;;7.90;4.30;;;;;;;;;;5003412;28;20078;-65
2022/09/23 02:19:34;;;;;;;6.55;4.72;;;;;;;;;;4985056;28;20565;-67
2022/09/23 02:22:10;;;;;;;5.57;4.88;;;;;;;;;;4980755;28;20046;-66
2022/09/23 02:24:37;;;;;;;5.40;4.82;;;;;;;;;;5001065;28;20041;-66
2022/09/23 02:27:35;;;;;;;7.10;5.10;;;;;;;;;;5003811;28;21176;-66
2022/09/23 02:30:04;;;;;;;6.32;4.85;;;;;;;;;;4999170;28;20440;-67
2022/09/23 02:32:31;;;;;;;6.53;4.65;;;;;;;;;;5017430;28;20085;-66
2022/09/23 02:35:03;;;;;;;5.32;4.82;;;;;;;;;;5018222;28;20045;-66
2022/09/23 02:37:38;;;;;;;5.20;4.40;;;;;;;;;;5012035;23;20050;-67
2022/09/23 02:40:04;;;;;;;6.00;5.13;;;;;;;;;;4983788;28;20070;-67
2022/09/23 02:42:49;;;;;;;5.70;5.20;;;;;;;;;;4997319;28;20532;-67
2022/09/23 02:45:15;;;;;;;8.77;4.28;;;;;;;;;;4978841;28;20073;-67
2022/09/23 02:47:43;;;;;;;5.47;4.63;;;;;;;;;;4981171;28;20141;-67
2022/09/23 02:50:09;;;;;;;5.93;5.00;;;;;;;;;;4966198;28;20112;-67
2022/09/23 02:52:37;;;;;;;7.03;5.10;;;;;;;;;;5002915;28;20125;-67
2022/09/23 02:55:05;;;;;;;6.50;5.30;;;;;;;;;;5004082;28;20081;-67
2022/09/23 02:57:31;;;;;;;7.93;5.85;;;;;;;;;;4983745;28;20081;-67
2022/09/23 02:59:58;;;;;;;7.55;5.60;;;;;;;;;;5003363;28;20136;-67
2022/09/23 03:02:54;;;;;;;5.78;5.18;;;;;;;;;;5001170;28;20065;-67
2022/09/23 03:05:26;;;;;;;5.13;4.63;;;;;;;;;;5003645;28;20184;-67
2022/09/23 03:08:26;;;;;;;6.45;4.90;;;;;;;;;;4987572;28;20085;-67
2022/09/23 03:11:07;;;;;;;6.25;5.53;;;;;;;;;;5006247;28;20100;-67
2022/09/23 03:13:46;;;;;;;5.70;5.10;;;;;;;;;;4971658;28;20085;-67
2022/09/23 03:16:27;;;;;;;5.50;4.90;;;;;;;;;;4965128;28;20505;-67
2022/09/23 03:19:05;;;;;;;7.18;5.07;;;;;;;;;;4970775;28;20057;-67
2022/09/23 03:21:59;;;;;;;7.50;5.22;;;;;;;;;;5005619;28;20092;-67
2022/09/23 03:24:30;;;;;;;5.40;4.55;;;;;;;;;;4981361;28;20042;-67
2022/09/23 03:26:59;;;;;;;6.38;5.57;;;;;;;;;;4990085;28;20124;-67
2022/09/23 03:29:25;;;;;;;5.75;4.97;;;;;;;;;;4972853;28;20315;-67
2022/09/23 03:31:52;;;;;;;8.80;4.90;;;;;;;;;;4986417;28;20280;-67
2022/09/23 03:34:22;;;;;;;5.45;4.95;;;;;;;;;;4987494;28;20132;-67
2022/09/23 03:36:59;;;;;;;7.03;5.45;;;;;;;;;;4968366;28;20476;-67
2022/09/23 03:39:35;;;;;;;8.32;5.22;;;;;;;;;;4970105;28;20046;-67
2022/09/23 03:42:05;;;;;;;7.78;5.72;;;;;;;;;;4973165;28;20057;-67
2022/09/23 03:44:37;;;;;;;6.95;4.90;;;;;;;;;;4972325;28;20583;-67
2022/09/23 03:47:05;;;;;;;7.20;5.17;;;;;;;;;;5000966;28;20478;-67
2022/09/23 03:49:34;;;;;;;6.38;5.43;;;;;;;;;;5003160;28;20148;-67
2022/09/23 03:52:02;;;;;;;7.60;5.07;;;;;;;;;;4970502;28;20151;-67
2022/09/23 03:54:29;;;;;;;7.13;5.25;;;;;;;;;;5003259;28;20078;-67
2022/09/23 03:56:57;;;;;;;7.10;5.28;;;;;;;;;;5007173;28;20080;-67
2022/09/23 03:59:24;;;;;;;5.93;5.32;;;;;;;;;;5005733;28;20050;-67
2022/09/23 04:01:51;;;;;;;5.82;4.80;;;;;;;;;;5005021;28;20100;-67
2022/09/23 04:04:18;;;;;;;7.25;5.00;;;;;;;;;;5006842;28;20448;-67
2022/09/23 04:06:45;;;;;;;5.53;4.63;;;;;;;;;;5005380;28;20082;-67
2022/09/23 04:09:12;;;;;;;6.35;4.90;;;;;;;;;;5006193;28;20176;-67
2022/09/23 04:11:38;;;;;;;5.28;4.78;;;;;;;;;;5005131;28;20125;-67
2022/09/23 04:14:05;;;;;;;5.43;4.88;;;;;;;;;;5005606;28;20081;-67
2022/09/23 04:16:31;;;;;;;6.25;5.47;;;;;;;;;;5004216;28;20096;-67
2022/09/23 04:18:58;;;;;;;6.28;4.43;;;;;;;;;;5007098;28;20532;-67
2022/09/23 04:21:25;;;;;;;6.65;4.78;;;;;;;;;;4999678;28;20516;-67
2022/09/23 04:23:52;;;;;;;5.50;4.93;;;;;;;;;;4980802;28;20078;-67
2022/09/23 04:26:21;;;;;;;7.03;6.32;;;;;;;;;;5005605;28;20424;-67
2022/09/23 04:28:47;;;;;;;7.03;5.72;;;;;;;;;;5002621;28;20547;-67
2022/09/23 04:31:14;;;;;;;6.15;5.55;;;;;;;;;;5005276;28;20108;-67
2022/09/23 04:33:41;;;;;;;7.13;6.10;;;;;;;;;;5003897;28;20058;-67
2022/09/23 04:36:07;;;;;;;5.95;5.28;;;;;;;;;;5005076;28;20572;-68
2022/09/23 04:38:34;;;;;;;7.80;5.32;;;;;;;;;;5002424;28;20084;-68
2022/09/23 04:41:01;;;;;;;9.05;5.93;;;;;;;;;;5002407;28;20077;-68
2022/09/23 04:43:28;;;;;;;7.25;5.20;;;;;;;;;;5005949;28;20086;-67
2022/09/23 04:46:03;;;;;;;5.38;4.78;;;;;;;;;;5002470;28;20077;-67
2022/09/23 04:48:29;;;;;;;7.65;5.68;;;;;;;;;;5002614;28;20081;-68
2022/09/23 04:51:07;;;;;;;6.22;5.43;;;;;;;;;;4998583;28;20056;-67
2022/09/23 04:53:34;;;;;;;6.70;5.10;;;;;;;;;;5001513;28;20082;-67
2022/09/23 04:56:05;;;;;;;8.70;5.25;;;;;;;;;;5005582;28;20125;-67
2022/09/23 04:58:33;;;;;;;8.13;5.82;;;;;;;;;;5005614;28;20081;-67
2022/09/23 05:01:30;;;;;;;9.43;5.95;;;;;;;;;;5002388;28;20137;-67
2022/09/23 05:04:01;;;;;;;12.40;6.00;;;;;;;;;;5005001;28;20096;-67
2022/09/23 05:06:33;;;;;;;8.95;5.70;;;;;;;;;;4999765;28;20050;-68
2022/09/23 05:09:00;;;;;;;8.95;5.88;;;;;;;;;;5000370;28;20145;-67
2022/09/23 05:11:28;;;;;;;9.95;6.20;;;;;;;;;;5004335;28;20053;-67
2022/09/23 05:13:55;;;;;;;8.20;6.60;;;;;;;;;;5000902;28;20527;-67
2022/09/23 05:16:22;;;;;;;9.93;7.90;;;;;;;;;;5004148;28;20074;-67
2022/09/23 05:18:50;;;;;;;8.30;7.38;;;;;;;;;;5000307;28;20421;-67
2022/09/23 05:21:18;;;;;;;7.35;5.57;;;;;;;;;;5001420;28;20077;-67
2022/09/23 05:23:53;;;;;;;10.48;4.80;;;;;;;;;;5005723;28;20045;-67
2022/09/23 05:26:22;;;;;;;7.72;5.40;;;;;;;;;;5001316;28;20064;-67
2022/09/23 05:28:48;;;;;;;6.43;5.75;;;;;;;;;;5003662;28;20050;-67
2022/09/23 05:31:20;;;;;;;8.50;5.68;;;;;;;;;;5004046;28;20441;-67
2022/09/23 05:33:52;;;;;;;6.50;5.25;;;;;;;;;;5004867;28;20133;-67
2022/09/23 05:36:20;;;;;;;6.28;5.47;;;;;;;;;;5005485;28;20128;-67
2022/09/23 05:38:48;;;;;;;8.02;5.53;;;;;;;;;;5002326;28;20517;-67
2022/09/23 05:41:16;;;;;;;6.47;5.40;;;;;;;;;;4999089;28;20061;-67
2022/09/23 05:43:43;;;;;;;7.75;5.75;;;;;;;;;;5002551;28;20375;-67
2022/09/23 05:46:14;;;;;;;6.55;5.70;;;;;;;;;;5004672;28;20092;-67
2022/09/23 05:48:42;;;;;;;8.13;5.63;;;;;;;;;;5000970;28;20100;-67
2022/09/23 05:51:11;;;;;;;9.32;5.82;;;;;;;;;;4999946;28;20130;-68
2022/09/23 05:53:39;;;;;;;8.13;6.05;;;;;;;;;;4981218;28;20419;-67
2022/09/23 05:56:06;;;;;;;8.60;6.78;;;;;;;;;;5003037;28;20145;-67
2022/09/23 05:58:33;;;;;;;9.15;6.90;;;;;;;;;;5005103;28;20409;-68
2022/09/23 06:01:00;;;;;;;11.93;8.30;;;;;;;;;;5003017;28;20084;-68
2022/09/23 06:03:26;;;;;;;12.27;8.77;;;;;;;;;;5004915;28;20050;-67
2022/09/23 06:05:54;;;;;;;11.45;8.38;;;;;;;;;;4998097;28;20050;-68
2022/09/23 06:08:22;;;;;;;9.93;7.03;;;;;;;;;;4996476;28;20565;-68
2022/09/23 06:10:49;;;;;;;8.70;6.70;;;;;;;;;;5003749;28;20053;-67
2022/09/23 06:13:20;;;;;;;9.13;6.85;;;;;;;;;;4980693;28;20066;-67
2022/09/23 06:15:46;;;;;;;10.88;7.20;;;;;;;;;;4978121;28;20081;-68
2022/09/23 06:18:13;;;;;;;11.13;6.75;;;;;;;;;;4976611;28;20086;-67
2022/09/23 06:20:39;;;;;;;6.25;5.65;;;;;;;;;;4978949;28;20050;-67
2022/09/23 06:23:08;;;;;;;9.25;6.28;;;;;;;;;;4978368;28;20054;-67
2022/09/23 06:25:37;;;;;;;9.73;5.90;;;;;;;;;;4979377;28;20053;-68
2022/09/23 06:28:05;;;;;;;9.40;6.43;;;;;;;;;;4977821;28;20128;-67
2022/09/23 06:30:33;;;;;;;8.95;5.50;;;;;;;;;;4975689;28;20101;-67
2022/09/23 06:33:00;;;;;;;7.50;5.68;;;;;;;;;;4977464;28;20109;-67
2022/09/23 06:35:27;;;;;;;8.57;5.82;;;;;;;;;;4979306;28;20141;-67
2022/09/23 06:37:54;;;;;;;9.23;5.47;;;;;;;;;;4979919;28;20070;-68
2022/09/23 06:40:21;;;;;;;8.57;6.07;;;;;;;;;;4978570;28;20407;-66
2022/09/23 06:42:48;;;;;;;10.55;6.35;;;;;;;;;;4963445;28;20126;-67
2022/09/23 06:45:17;;;;;;;10.93;6.05;;;;;;;;;;4961147;28;20047;-67
2022/09/23 06:47:44;;;;;;;12.00;6.93;;;;;;;;;;4980152;28;20096;-68
2022/09/23 06:50:13;;;;;;;10.48;7.15;;;;;;;;;;4976266;28;20552;-67
2022/09/23 06:52:41;;;;;;;6.97;5.78;;;;;;;;;;4978371;28;20082;-67
2022/09/23 06:55:09;;;;;;;8.93;5.80;;;;;;;;;;4977980;28;20050;-67
2022/09/23 06:57:35;;;;;;;9.40;6.50;;;;;;;;;;4978549;28;20089;-68
2022/09/23 07:00:02;;;;;;;7.40;5.85;;;;;;;;;;4978730;28;20109;-70
2022/09/23 07:02:29;;;;;;;7.63;5.72;;;;;;;;;;4965905;28;20078;-69
2022/09/23 07:04:56;;;;;;;7.75;5.55;;;;;;;;;;4972469;28;20095;-70
2022/09/23 07:07:22;;;;;;;7.72;6.03;;;;;;;;;;4999704;28;20104;-70
2022/09/23 07:09:50;;;;;;;7.63;5.63;;;;;;;;;;4999018;28;20085;-69
2022/09/23 07:12:16;;;;;;;7.93;4.75;;;;;;;;;;5000567;28;20077;-70
2022/09/23 07:14:43;;;;;;;6.43;5.03;;;;;;;;;;4996158;28;20088;-71
2022/09/23 07:17:11;;;;;;;5.32;4.60;;;;;;;;;;5001412;28;20120;-68
2022/09/23 07:19:37;;;;;;;4.88;4.32;;;;;;;;;;5001063;28;20077;-68
2022/09/23 07:22:04;;;;;;;5.80;4.50;;;;;;;;;;4982960;28;20483;-69
2022/09/23 07:24:32;;;;;;;5.75;4.40;;;;;;;;;;5003351;28;20496;-71
2022/09/23 07:26:58;;;;;;;7.03;5.47;;;;;;;;;;5000812;28;20077;-74
2022/09/23 07:29:25;;;;;;;5.25;4.50;;;;;;;;;;5001886;28;20476;-67
2022/09/23 07:31:51;;;;;;;5.28;3.95;;;;;;;;;;5000947;28;20158;-66
2022/09/23 07:34:22;;;;;;;5.35;3.83;;;;;;;;;;5000512;28;20046;-67
2022/09/23 07:36:49;;;;;;;5.85;3.67;;;;;;;;;;5000855;28;20086;-66
2022/09/23 07:39:16;;;;;;;8.68;4.25;;;;;;;;;;5000554;28;20470;-67
2022/09/23 07:41:43;;;;;;;6.15;4.43;;;;;;;;;;5002299;28;20093;-66
2022/09/23 07:44:10;;;;;;;3.92;3.42;;;;;;;;;;4982803;28;20050;-67
2022/09/23 07:46:37;;;;;;;3.20;2.90;;;;;;;;;;5002363;28;20520;-66
2022/09/23 07:49:04;;;;;;;8.93;3.17;;;;;;;;;;4995528;28;20096;-68
2022/09/23 07:51:33;;;;;;;3.80;3.25;;;;;;;;;;4983429;28;20050;-67
2022/09/23 07:54:04;;;;;;;3.53;3.03;;;;;;;;;;5002104;28;20058;-68
2022/09/23 07:56:30;;;;;;;3.30;2.80;;;;;;;;;;5004882;28;20053;-71
2022/09/23 07:59:01;;;;;;;4.38;3.28;;;;;;;;;;5005038;28;20077;-65
2022/09/23 08:01:36;;;;;;;3.00;2.75;;;;;;;;;;4999975;28;20049;-66
2022/09/23 08:04:24;;;;;;;3.42;3.13;;;;;;;;;;5003397;28;20422;-74
2022/09/23 08:06:53;;;;;;;5.07;3.25;;;;;;;;;;4984927;28;20046;-67
2022/09/23 08:09:21;;;;;;;3.85;3.08;;;;;;;;;;4987961;28;20058;-68
2022/09/23 08:11:49;;;;;;;5.55;3.00;;;;;;;;;;5005617;28;20073;-69
2022/09/23 08:14:17;;;;;;;3.42;3.00;;;;;;;;;;5003672;28;20578;-68
2022/09/23 08:16:44;;;;;;;4.55;2.90;;;;;;;;;;5003984;28;20086;-70
2022/09/23 08:19:11;;;;;;;7.22;3.13;;;;;;;;;;5005302;28;20114;-69
2022/09/23 08:21:39;;;;;;;3.47;2.88;;;;;;;;;;5004048;28;20509;-66
2022/09/23 08:24:12;;;;;;;3.78;3.10;;;;;;;;;;5003649;28;20058;-66
2022/09/23 08:26:38;;;;;;;;;;;;;;;;;;4998614;28;20098;-66
2022/09/23 08:29:06;;;;;;;4.47;3.10;;;;;;;;;;5005134;28;19925;-70
2022/09/23 08:31:33;;;;;;;3.88;2.65;;;;;;;;;;5006055;28;20181;-72
2022/09/23 08:33:59;;;;;;;5.45;2.80;;;;;;;;;;5005512;28;20497;-69
2022/09/23 08:36:26;;;;;;;3.08;2.53;;;;;;;;;;5000308;28;20054;-67
2022/09/23 08:38:54;;;;;;;4.03;2.78;;;;;;;;;;5004959;28;20085;-67
2022/09/23 08:41:53;;;;;;;3.60;3.00;;;;;;;;;;5010793;28;20128;-66
2022/09/23 08:44:42;;;;;;;4.13;2.60;;;;;;;;;;4990893;28;20050;-65
2022/09/23 08:47:17;;;;;;;2.78;2.38;;;;;;;;;;5002830;28;20468;-67
2022/09/23 08:50:05;;;;;;;3.53;2.58;;;;;;;;;;4973538;28;20073;-68
2022/09/23 08:52:34;;;;;;;3.90;2.20;;;;;;;;;;4987074;28;20506;-67
2022/09/23 08:55:02;;;;;;;5.22;2.78;;;;;;;;;;4986142;28;20505;-67
2022/09/23 08:57:36;;;;;;;3.30;2.67;;;;;;;;;;4989068;28;20496;-67
2022/09/23 09:00:04;;;;;;;4.10;2.72;;;;;;;;;;4979119;28;20085;-74
2022/09/23 09:02:32;;;;;;;3.25;2.42;;;;;;;;;;4999019;28;20205;-66
2022/09/23 09:05:03;;;;;;;5.03;2.55;;;;;;;;;;4985908;28;20116;-74
2022/09/23 09:07:33;;;;;;;3.83;2.40;;;;;;;;;;4985970;28;20136;-69
2022/09/23 09:10:21;;;;;;;3.38;2.22;;;;;;;;;;4987486;28;20054;-67
2022/09/23 09:13:06;;;;;;;3.85;2.88;;;;;;;;;;4968535;28;20452;-70
2022/09/23 09:15:44;;;;;;;3.90;2.15;;;;;;;;;;4977316;28;20043;-66
2022/09/23 09:18:16;;;;;;;4.57;2.38;;;;;;;;;;4951594;28;20065;-68
2022/09/23 09:20:59;;;;;;;2.78;2.17;;;;;;;;;;4952924;28;20047;-67
2022/09/23 09:23:33;;;;;;;7.47;2.33;;;;;;;;;;4973885;28;20559;-68
2022/09/23 09:26:00;;;;;;;3.20;2.10;;;;;;;;;;4963117;28;20074;-66
2022/09/23 09:28:34;;;;;;;2.72;2.25;;;;;;;;;;4949302;28;20462;-67
2022/09/23 09:31:25;;;;;;;3.92;1.90;;;;;;;;;;4990374;28;20046;-69
2022/09/23 09:34:25;;;;;;;3.30;2.28;;;;;;;;;;4983768;28;20187;-69
2022/09/23 09:37:05;;;;;;;4.75;1.98;;;;;;;;;;4975039;28;20055;-70
2022/09/23 09:39:33;;;;;;;3.58;2.30;;;;;;;;;;4979740;28;20046;-69
2022/09/23 09:42:00;;;;;;;3.88;1.90;;;;;;;;;;4985793;28;20096;-69
2022/09/23 09:44:43;;;;;;;3.63;2.40;;;;;;;;;;4985401;28;20058;-66
2022/09/23 09:47:19;;;;;;;;;;;;;;;;;;4974220;28;20452;-67
2022/09/23 09:49:50;;;;;;;2.17;1.98;;;;;;;;;;4978519;28;19961;-65
2022/09/23 09:52:25;;;;;;;2.00;1.70;;;;;;;;;;4984484;28;20096;-66
2022/09/23 09:54:53;;;;;;;2.90;1.83;;;;;;;;;;4989990;28;20090;-67
2022/09/23 09:57:30;;;;;;;2.40;2.00;;;;;;;;;;4988325;28;20050;-63
2022/09/23 10:00:30;;;;;;;3.13;1.70;;;;;;;;;;4965879;28;20134;-64
2022/09/23 10:03:07;;;;;;;2.83;1.98;;;;;;;;;;4984459;28;20077;-66
2022/09/23 10:05:48;;;;;;;4.15;2.08;;;;;;;;;;4951719;28;20086;-66
2022/09/23 10:08:17;;;;;;;2.08;1.60;;;;;;;;;;4979980;28;20568;-73
2022/09/23 10:10:59;;;;;;;5.07;1.67;;;;;;;;;;4986130;28;20050;-70
2022/09/23 10:13:29;;;;;;;3.08;2.03;;;;;;;;;;4981160;28;20047;-72
2022/09/23 10:16:02;;;;;;;3.58;2.00;;;;;;;;;;4968327;28;20137;-70
2022/09/23 10:18:33;;;;;;;3.60;2.10;;;;;;;;;;4972564;28;20082;-64
2022/09/23 10:21:01;;;;;;;2.95;1.95;;;;;;;;;;4987220;28;20137;-70
2022/09/23 10:23:32;;;;;;;2.63;2.22;;;;;;;;;;4964688;28;20057;-74
2022/09/23 10:26:01;;;;;;;2.40;2.20;;;;;;;;;;4964441;28;20050;-76
2022/09/23 10:28:37;;;;;;;5.45;2.35;;;;;;;;;;4960203;28;20082;-72
2022/09/23 10:31:08;;;;;;;3.25;2.30;;;;;;;;;;4970265;28;20051;-71
2022/09/23 10:33:47;;;;;;;3.45;2.10;;;;;;;;;;5004128;28;20081;-70
2022/09/23 10:36:17;;;;;;;2.88;2.10;;;;;;;;;;4986469;28;20116;-73
2022/09/23 10:48:26;;;;;;;2.30;2.10;;;;;;;;;;4974190;28;21377;-66
2022/09/23 10:50:52;;;;;;;5.35;2.45;;;;;;;;;;4999433;28;20053;-64
2022/09/23 10:53:40;;;;;;;8.38;2.25;;;;;;;;;;4967671;28;20143;-65
2022/09/23 10:56:35;;;;;;;2.47;2.08;;;;;;;;;;4981615;28;20050;-66
2022/09/23 10:59:29;;;;;;;3.10;2.10;;;;;;;;;;4993275;28;20084;-67
2022/09/23 11:02:33;;;;;;;5.82;2.58;;;;;;;;;;4979629;28;20409;-66
2022/09/23 11:05:19;;;;;;;4.32;2.35;;;;;;;;;;4979545;28;20071;-67
2022/09/23 11:07:56;;;;;;;2.90;2.38;;;;;;;;;;4983100;28;20067;-65
2022/09/23 11:10:42;;;;;;;2.55;1.98;;;;;;;;;;4965406;28;20549;-62
2022/09/23 11:13:12;;;;;;;2.72;2.10;;;;;;;;;;4977706;28;20528;-64
2022/09/23 11:16:04;;;;;;;2.20;2.00;;;;;;;;;;4978331;28;20070;-63
2022/09/23 11:19:00;;;;;;;5.90;1.98;;;;;;;;;;4965834;28;20128;-63
2022/09/23 11:21:36;;;;;;;4.82;2.60;;;;;;;;;;4973131;28;20537;-62
2022/09/23 11:24:30;;;;;;;5.30;2.53;;;;;;;;;;4986443;28;20095;-63
2022/09/23 11:27:24;;;;;;;4.88;2.00;;;;;;;;;;4958617;28;20042;-63
2022/09/23 11:30:08;;;;;;;2.67;1.63;;;;;;;;;;4983474;28;20078;-62
2022/09/23 11:32:58;;;;;;;2.97;1.92;;;;;;;;;;4973468;28;20581;-63
2022/09/23 11:35:32;;;;;;;3.60;2.22;;;;;;;;;;4966541;28;20469;-63
2022/09/23 11:38:26;;;;;;;2.47;2.10;;;;;;;;;;4967987;28;20048;-63
2022/09/23 11:40:55;;;;;;;2.80;1.73;;;;;;;;;;4975402;28;20553;-63
2022/09/23 11:43:28;;;;;;;5.40;2.10;;;;;;;;;;4959580;28;20085;-63
2022/09/23 11:46:02;;;;;;;3.22;2.00;;;;;;;;;;4964389;28;20046;-63
2022/09/23 11:48:39;;;;;;;3.17;1.80;;;;;;;;;;4969916;28;20050;-63
2022/09/23 11:51:11;;;;;;;3.30;1.75;;;;;;;;;;4951582;28;20149;-62
2022/09/23 11:53:44;;;;;;;2.28;1.88;;;;;;;;;;4952813;28;20063;-62
2022/09/23 11:56:33;;;;;;;4.50;1.55;;;;;;;;;;4974611;28;20592;-62
2022/09/23 11:59:23;;;;;;;3.67;1.98;;;;;;;;;;4955779;28;20077;-63
2022/09/23 12:02:13;;;;;;;6.95;2.33;;;;;;;;;;4985410;28;20134;-64
2022/09/23 12:05:08;;;;;;;5.63;2.30;;;;;;;;;;4962581;28;20480;-63
2022/09/23 12:08:01;;;;;;;2.63;1.73;;;;;;;;;;4964223;28;20114;-64
2022/09/23 12:10:43;;;;;;;4.53;2.08;;;;;;;;;;4966963;28;20082;-64
2022/09/23 12:13:30;;;;;;;3.03;2.05;;;;;;;;;;4983763;28;20077;-63
2022/09/23 12:16:36;;;;;;;2.88;2.25;;;;;;;;;;4983340;28;20454;-62
2022/09/23 12:19:05;;;;;;;6.03;2.35;;;;;;;;;;4935317;28;20089;-64
2022/09/23 12:21:41;;;;;;;3.78;2.00;;;;;;;;;;4981110;28;20483;-65
2022/09/23 12:24:21;;;;;;;2.90;2.30;;;;;;;;;;4968822;28;20398;-64
2022/09/23 12:26:52;;;;;;;3.28;2.40;;;;;;;;;;4963976;28;20081;-64
2022/09/23 12:29:18;;;;;;;4.43;2.30;;;;;;;;;;4964006;28;20082;-64
2022/09/23 12:31:45;;;;;;;4.68;2.20;;;;;;;;;;4987582;28;20046;-62
2022/09/23 12:34:35;;;;;;;3.25;2.05;;;;;;;;;;4963079;28;20054;-64
2022/09/23 12:37:02;;;;;;;6.20;2.30;;;;;;;;;;4968400;28;20098;-65
2022/09/23 12:39:34;;;;;;;4.43;2.05;;;;;;;;;;4968939;28;20047;-63
2022/09/23 12:42:17;;;;;;;9.73;3.15;;;;;;;;;;4982043;28;20050;-64
2022/09/23 12:44:46;;;;;;;3.28;2.40;;;;;;;;;;4973782;28;20054;-63
2022/09/23 12:47:24;;;;;;;4.30;2.40;;;;;;;;;;4984815;28;20082;-64
2022/09/23 12:49:52;;;;;;;4.75;2.50;;;;;;;;;;4979896;28;20079;-63
2022/09/23 12:52:18;;;;;;;4.25;2.60;;;;;;;;;;4982075;28;20050;-65
2022/09/23 12:54:49;;;;;;;5.90;4.18;;;;;;;;;;4980292;28;20486;-64
2022/09/23 12:57:33;;;;;;;7.85;4.65;;;;;;;;;;4984603;28;20158;-64
2022/09/23 13:00:11;;;;;;;7.82;4.15;;;;;;;;;;4983646;28;20104;-64
2022/09/23 13:02:40;;;;;;;5.60;2.92;;;;;;;;;;4985422;28;20110;-64
2022/09/23 13:08:25;;;;;;;6.25;2.75;;;;;;;;;;4978417;28;20073;-65
2022/09/23 13:11:02;;;;;;;3.40;2.70;;;;;;;;;;4978345;28;20085;-64
2022/09/23 13:13:34;;;;;;;7.63;2.40;;;;;;;;;;4960728;28;20086;-63
2022/09/23 13:16:18;;;;;;;4.60;2.77;;;;;;;;;;4976770;28;20078;-63
2022/09/23 13:18:58;;;;;;;4.68;2.10;;;;;;;;;;4993586;28;20282;-64
2022/09/23 13:21:43;;;;;;;4.28;2.47;;;;;;;;;;4977078;28;20419;-64
2022/09/23 13:24:27;;;;;;;3.10;2.17;;;;;;;;;;4993922;28;20124;-62
2022/09/23 13:27:19;;;;;;;4.75;2.25;;;;;;;;;;4981122;28;20042;-63
2022/09/23 13:29:54;;;;;;;3.05;2.40;;;;;;;;;;4991027;28;20125;-64
2022/09/23 13:32:24;;;;;;;6.03;2.97;;;;;;;;;;4993352;28;20081;-64
2022/09/23 13:35:02;;;;;;;3.33;2.72;;;;;;;;;;4976132;28;20108;-64
2022/09/23 13:37:30;;;;;;;3.42;2.30;;;;;;;;;;4990349;28;20102;-63
2022/09/23 13:40:16;;;;;;;2.83;2.40;;;;;;;;;;5013047;28;20449;-63
2022/09/23 13:42:45;;;;;;;3.20;2.60;;;;;;;;;;5013614;28;20092;-63
2022/09/23 13:45:17;;;;;;;5.55;3.45;;;;;;;;;;4982815;28;20497;-63
2022/09/23 13:47:44;;;;;;;3.58;3.08;;;;;;;;;;4975780;28;20117;-63
2022/09/23 13:50:29;;;;;;;4.22;2.50;;;;;;;;;;4906132;28;21015;-63
2022/09/23 13:53:02;;;;;;;3.60;2.60;;;;;;;;;;4974296;28;20059;-63
2022/09/23 13:55:31;;;;;;;6.05;2.33;;;;;;;;;;4957050;28;20051;-63
2022/09/23 13:58:22;;;;;;;3.42;2.20;;;;;;;;;;4973721;28;20521;-64
2022/09/23 14:00:49;;;;;;;3.17;2.45;;;;;;;;;;4966764;28;20494;-63
2022/09/23 14:03:34;;;;;;;2.97;1.80;;;;;;;;;;4956861;28;20329;-63
2022/09/23 14:06:13;;;;;;;2.67;1.60;;;;;;;;;;4968563;28;20055;-64
2022/09/23 14:08:45;;;;;;;3.97;2.08;;;;;;;;;;4924037;29;20734;-63
2022/09/23 14:11:28;;;;;;;2.65;2.22;;;;;;;;;;4936484;29;20082;-64
2022/09/23 14:13:55;;;;;;;4.95;2.25;;;;;;;;;;4923032;29;20086;-70
2022/09/23 14:16:25;;;;;;;2.95;2.30;;;;;;;;;;4936255;28;20438;-69
2022/09/23 14:18:58;;;;;;;3.05;2.10;;;;;;;;;;4936903;28;20043;-76
2022/09/23 14:21:46;;;;;;;3.72;2.30;;;;;;;;;;4956861;28;20135;-76
2022/09/23 14:24:36;;;;;;;3.22;2.00;;;;;;;;;;4956616;28;20055;-74
2022/09/23 14:27:06;;;;;;;3.47;2.15;;;;;;;;;;4973578;28;20324;-69
2022/09/23 14:29:39;;;;;;;3.42;2.42;;;;;;;;;;4970363;28;20090;-70
2022/09/23 14:32:19;;;;;;;4.60;1.80;;;;;;;;;;4945203;28;20114;-68
2022/09/23 14:34:59;;;;;;;3.20;1.98;;;;;;;;;;4933123;28;20047;-70
2022/09/23 14:40:52;;;;;;;2.38;2.10;;;;;;;;;;4962184;28;20134;-66
2022/09/23 14:43:21;;;;;;;2.58;2.38;;;;;;;;;;4949666;28;20055;-67
2022/09/23 14:45:57;;;;;;;6.22;2.08;;;;;;;;;;4945346;28;20081;-72
2022/09/23 14:48:33;;;;;;;2.55;2.20;;;;;;;;;;4946609;28;20043;-67
2022/09/23 14:51:05;;;;;;;6.00;2.38;;;;;;;;;;4942140;28;20078;-70
2022/09/23 14:53:40;;;;;;;4.17;2.60;;;;;;;;;;4929376;28;20082;-67
2022/09/23 14:56:06;;;;;;;3.10;2.20;;;;;;;;;;4944294;28;20497;-67
2022/09/23 14:59:01;;;;;;;4.07;2.28;;;;;;;;;;4961398;28;20047;-71
2022/09/23 15:01:30;;;;;;;3.13;2.05;;;;;;;;;;4965635;28;20074;-71
2022/09/23 15:03:59;;;;;;;5.72;2.50;;;;;;;;;;4963770;28;20085;-72
2022/09/23 15:06:35;;;;;;;4.40;2.47;;;;;;;;;;4928538;28;20051;-74
2022/09/23 15:09:03;;;;;;;4.50;2.17;;;;;;;;;;4932238;29;20047;-70
2022/09/23 15:11:30;;;;;;;3.20;2.10;;;;;;;;;;4964605;28;20146;-72
2022/09/23 15:13:56;;;;;;;3.85;2.40;;;;;;;;;;4963895;28;20043;-72
2022/09/23 15:16:39;;;;;;;4.13;2.47;;;;;;;;;;4964338;28;20078;-70
2022/09/23 15:19:13;;;;;;;4.57;2.47;;;;;;;;;;4966734;28;20039;-68
2022/09/23 15:21:53;;;;;;;3.15;2.47;;;;;;;;;;4921158;28;20419;-71
2022/09/23 15:24:46;;;;;;;3.45;2.70;;;;;;;;;;4934646;28;20491;-70
2022/09/23 15:27:32;;;;;;;2.70;2.50;;;;;;;;;;4946460;28;20066;-71
2022/09/23 15:30:15;;;;;;;3.28;2.40;;;;;;;;;;4962653;28;20093;-70
2022/09/23 15:32:43;;;;;;;4.40;2.83;;;;;;;;;;4963787;28;20046;-69
2022/09/23 15:35:40;;;;;;;3.45;2.55;;;;;;;;;;4966004;28;20058;-71
2022/09/23 15:38:08;;;;;;;3.85;2.60;;;;;;;;;;4935336;28;20051;-71